Terminal Aerodrome Forecast
Issued by NWS

Home | Current Version | Previous Version | Text Only | Print | Product List | Glossary On
Versions: 1 2 3 4 5 6 7 8 9 10 11 12
000
FTUS45 KGJT 260520
TAFCNY
TAF
KCNY 260520Z 2606/2706 VRB04KT P6SM SCT150 BKN250
     FM261200 12004KT P6SM FEW150 SCT250
     FM261900 26012G18KT P6SM SCT150 SCT250
     FM270100 28008KT P6SM SCT150 BKN250=

USA.gov is the U.S. government's official web portal to all federal, state and local government web resources and services.